createdAt,value
2022-08-26T00:02:11.731Z,23.40
2022-08-26T00:04:39.130Z,23.33
2022-08-26T00:07:06.816Z,23.21
2022-08-26T00:09:39.040Z,23.20
2022-08-26T00:12:09.388Z,22.99
2022-08-26T00:14:39.955Z,22.91
2022-08-26T00:17:08.674Z,23.17
2022-08-26T00:19:36.081Z,23.07
2022-08-26T00:22:03.849Z,23.61
2022-08-26T00:24:31.226Z,23.72
2022-08-26T00:26:58.842Z,23.35
2022-08-26T00:29:26.128Z,23.34
2022-08-26T00:31:53.461Z,23.42
2022-08-26T00:34:20.844Z,23.18
2022-08-26T00:36:49.254Z,23.11
2022-08-26T00:39:20.573Z,23.00
2022-08-26T00:41:53.488Z,22.71
2022-08-26T00:44:21.557Z,22.48
2022-08-26T00:47:00.780Z,22.52
2022-08-26T00:49:40.767Z,22.78
2022-08-26T00:52:19.184Z,22.77
2022-08-26T00:55:22.336Z,22.71
2022-08-26T00:57:52.687Z,22.89
2022-08-26T01:00:27.855Z,22.68
2022-08-26T01:02:57.008Z,22.47
2022-08-26T01:05:25.462Z,22.50
2022-08-26T01:07:52.854Z,22.46
2022-08-26T01:10:27.347Z,22.64
2022-08-26T01:13:10.230Z,22.49
2022-08-26T01:15:50.320Z,22.40
2022-08-26T01:18:18.474Z,22.86
2022-08-26T01:21:25.390Z,22.98
2022-08-26T01:23:57.727Z,22.97
2022-08-26T01:26:35.299Z,22.58
2022-08-26T01:29:08.340Z,22.52
2022-08-26T01:31:45.413Z,22.32
2022-08-26T01:34:27.211Z,22.44
2022-08-26T01:37:07.030Z,22.27
2022-08-26T01:39:37.181Z,22.45
2022-08-26T01:42:11.635Z,22.60
2022-08-26T01:45:11.312Z,22.49
2022-08-26T01:47:39.893Z,22.61
2022-08-26T01:50:28.203Z,21.97
2022-08-26T01:53:07.040Z,22.04
2022-08-26T01:55:40.034Z,22.10
2022-08-26T01:58:20.867Z,22.08
2022-08-26T02:00:49.439Z,22.25
2022-08-26T02:03:22.187Z,22.24
2022-08-26T02:06:00.372Z,22.33
2022-08-26T02:08:38.011Z,22.37
2022-08-26T02:11:05.662Z,22.23
2022-08-26T02:13:41.663Z,22.12
2022-08-26T02:16:11.062Z,22.53
2022-08-26T02:18:43.912Z,22.20
2022-08-26T02:21:15.265Z,22.07
2022-08-26T02:23:42.920Z,22.14
2022-08-26T02:26:21.241Z,22.09
2022-08-26T02:29:08.854Z,21.98
2022-08-26T02:31:36.185Z,21.97
2022-08-26T02:34:20.256Z,22.21
2022-08-26T02:36:49.357Z,22.07
2022-08-26T02:39:22.023Z,21.97
2022-08-26T02:41:50.520Z,21.87
2022-08-26T02:44:17.897Z,21.89
2022-08-26T02:46:47.256Z,21.96
2022-08-26T02:49:17.004Z,21.91
2022-08-26T02:51:49.549Z,22.01
2022-08-26T02:54:19.620Z,21.62
2022-08-26T02:56:48.176Z,21.66
2022-08-26T02:59:15.583Z,21.90
2022-08-26T03:01:45.010Z,21.59
2022-08-26T03:04:13.920Z,21.61
2022-08-26T03:06:42.542Z,21.48
2022-08-26T03:09:09.981Z,21.62
2022-08-26T03:11:41.842Z,21.51
2022-08-26T03:14:11.090Z,21.26
2022-08-26T03:16:40.097Z,21.09
2022-08-26T03:19:09.998Z,21.14
2022-08-26T03:21:39.282Z,21.13
2022-08-26T03:24:06.835Z,21.23
2022-08-26T03:26:34.050Z,21.24
2022-08-26T03:29:30.838Z,21.15
2022-08-26T03:32:01.540Z,21.25
2022-08-26T03:34:28.741Z,21.14
2022-08-26T03:36:55.923Z,21.05
2022-08-26T03:39:23.694Z,21.12
2022-08-26T03:41:52.476Z,21.31
2022-08-26T03:44:21.737Z,21.16
2022-08-26T03:46:49.667Z,21.07
2022-08-26T03:49:17.583Z,21.06
2022-08-26T03:51:45.676Z,21.01
2022-08-26T03:54:13.646Z,21.01
2022-08-26T03:56:41.252Z,21.00
2022-08-26T03:59:09.329Z,21.00
2022-08-26T04:01:36.883Z,20.87
2022-08-26T04:04:04.554Z,20.92
2022-08-26T04:06:39.835Z,20.97
2022-08-26T04:09:17.883Z,20.89
2022-08-26T04:11:47.467Z,20.92
2022-08-26T04:14:23.687Z,20.86
2022-08-26T04:16:53.706Z,20.82
2022-08-26T04:19:24.812Z,20.93
2022-08-26T04:21:53.445Z,21.16
2022-08-26T04:24:25.130Z,21.00
2022-08-26T04:26:53.209Z,20.84
2022-08-26T04:29:25.787Z,20.88
2022-08-26T04:31:55.930Z,20.87
2022-08-26T04:34:28.525Z,20.84
2022-08-26T04:36:57.900Z,20.85
2022-08-26T04:39:27.755Z,20.96
2022-08-26T04:41:57.769Z,20.76
2022-08-26T04:44:29.769Z,20.87
2022-08-26T04:46:58.827Z,21.02
2022-08-26T04:49:27.578Z,21.30
2022-08-26T04:51:55.310Z,21.15
2022-08-26T04:54:23.489Z,21.21
2022-08-26T04:56:52.791Z,21.29
2022-08-26T04:59:20.139Z,21.29
2022-08-26T05:01:59.332Z,21.52
2022-08-26T05:04:26.662Z,21.38
2022-08-26T05:06:57.832Z,21.73
2022-08-26T05:09:29.881Z,21.98
2022-08-26T05:11:58.017Z,22.26
2022-08-26T05:14:25.311Z,22.81
2022-08-26T05:16:53.900Z,23.89
2022-08-26T05:19:21.264Z,24.53
2022-08-26T05:21:49.198Z,25.27
2022-08-26T05:24:18.113Z,26.10
2022-08-26T05:26:46.419Z,26.23
2022-08-26T05:29:14.171Z,26.72
2022-08-26T05:31:41.921Z,26.56
2022-08-26T05:34:15.638Z,26.84
2022-08-26T05:36:46.914Z,26.96
2022-08-26T05:39:14.235Z,27.22
2022-08-26T05:41:43.145Z,27.92
2022-08-26T05:44:18.891Z,28.44
2022-08-26T05:46:46.391Z,28.28
2022-08-26T05:49:16.230Z,28.78
2022-08-26T05:51:47.536Z,28.51
2022-08-26T05:54:22.399Z,27.56
2022-08-26T05:56:51.970Z,26.89
2022-08-26T05:59:21.368Z,26.17
2022-08-26T06:01:54.618Z,25.43
2022-08-26T06:04:27.111Z,25.14
2022-08-26T06:06:56.231Z,25.16
2022-08-26T06:09:24.498Z,25.25
2022-08-26T06:11:52.309Z,25.41
2022-08-26T06:14:20.958Z,26.18
2022-08-26T06:16:49.062Z,27.23
2022-08-26T06:19:17.210Z,28.04
2022-08-26T06:21:54.246Z,28.43
2022-08-26T06:24:41.112Z,29.45
2022-08-26T06:27:13.364Z,30.93
2022-08-26T06:29:40.668Z,32.05
2022-08-26T06:32:08.768Z,33.54
2022-08-26T06:34:36.181Z,34.35
2022-08-26T06:37:06.487Z,35.89
2022-08-26T06:39:34.333Z,36.53
2022-08-26T06:42:02.943Z,37.03
2022-08-26T06:44:34.500Z,37.12
2022-08-26T06:47:02.030Z,36.55
2022-08-26T06:49:29.289Z,36.42
2022-08-26T06:52:00.073Z,36.19
2022-08-26T06:54:31.604Z,36.02
2022-08-26T06:57:01.047Z,35.70
2022-08-26T06:59:28.351Z,36.50
2022-08-26T07:01:55.695Z,36.90
2022-08-26T07:04:24.935Z,37.82
2022-08-26T07:06:56.285Z,39.26
2022-08-26T07:09:27.934Z,39.98
2022-08-26T07:11:56.551Z,40.28
2022-08-26T07:14:26.069Z,38.92
2022-08-26T07:16:54.949Z,38.60
2022-08-26T07:19:31.092Z,39.83
2022-08-26T07:22:06.335Z,39.91
2022-08-26T07:24:42.507Z,41.12
2022-08-26T07:27:16.804Z,42.39
2022-08-26T07:29:44.880Z,42.90
2022-08-26T07:32:15.102Z,44.44
2022-08-26T07:34:43.471Z,45.43
2022-08-26T07:37:12.082Z,45.67
2022-08-26T07:39:41.587Z,46.13
2022-08-26T07:42:14.756Z,45.36
2022-08-26T07:44:43.844Z,45.32
2022-08-26T07:47:25.157Z,44.85
2022-08-26T07:49:57.950Z,45.32
2022-08-26T07:52:29.319Z,43.77
2022-08-26T07:55:01.017Z,43.09
2022-08-26T07:57:30.312Z,43.41
2022-08-26T07:59:59.108Z,42.42
2022-08-26T08:02:29.172Z,42.79
2022-08-26T08:04:58.331Z,43.14
2022-08-26T08:07:44.907Z,44.58
2022-08-26T08:10:20.750Z,44.92
2022-08-26T08:12:53.110Z,43.50
2022-08-26T08:15:26.404Z,43.14
2022-08-26T08:17:58.835Z,43.65
2022-08-26T08:20:29.952Z,44.36
2022-08-26T08:22:57.473Z,43.45
2022-08-26T08:25:25.117Z,41.72
2022-08-26T08:27:52.367Z,39.83
2022-08-26T08:30:22.757Z,38.38
2022-08-26T08:32:51.620Z,37.86
2022-08-26T08:35:23.975Z,37.59
2022-08-26T08:37:54.832Z,39.44
2022-08-26T08:40:26.618Z,41.45
2022-08-26T08:43:17.491Z,42.33
2022-08-26T08:45:58.241Z,43.85
2022-08-26T08:48:33.923Z,45.04
2022-08-26T08:51:34.168Z,44.87
2022-08-26T08:54:02.739Z,44.83
2022-08-26T08:57:00.629Z,45.85
2022-08-26T08:59:35.788Z,47.39
2022-08-26T09:02:22.281Z,47.43
2022-08-26T09:05:22.461Z,46.28
2022-08-26T09:08:17.517Z,46.29
2022-08-26T09:10:59.523Z,46.10
2022-08-26T09:13:29.084Z,44.93
2022-08-26T09:17:04.921Z,45.46
2022-08-26T09:19:54.853Z,46.92
2022-08-26T09:22:37.414Z,48.84
2022-08-26T09:25:11.834Z,50.44
2022-08-26T09:27:52.452Z,51.53
2022-08-26T09:30:31.156Z,51.86
2022-08-26T09:33:10.355Z,51.44
2022-08-26T09:35:48.728Z,51.05
2022-08-26T09:38:34.071Z,52.19
2022-08-26T09:41:08.254Z,53.27
2022-08-26T09:43:36.170Z,54.42
2022-08-26T09:46:26.160Z,55.32
2022-08-26T09:48:53.861Z,54.15
2022-08-26T09:51:31.753Z,53.91
2022-08-26T09:54:03.003Z,53.65
2022-08-26T09:56:39.663Z,54.20
2022-08-26T09:59:12.054Z,53.75
2022-08-26T10:01:45.305Z,53.42
2022-08-26T10:04:23.238Z,53.69
2022-08-26T10:07:08.242Z,54.49
2022-08-26T10:09:44.453Z,54.72
2022-08-26T10:12:20.514Z,54.81
2022-08-26T10:14:54.154Z,55.75
2022-08-26T10:17:36.643Z,55.33
2022-08-26T10:20:23.449Z,54.66
2022-08-26T10:23:14.852Z,54.64
2022-08-26T10:26:05.284Z,53.00
2022-08-26T10:29:19.809Z,52.50
2022-08-26T10:32:10.354Z,53.44
2022-08-26T10:34:43.218Z,52.68
2022-08-26T10:37:21.760Z,53.16
2022-08-26T10:40:02.449Z,52.95
2022-08-26T10:42:58.762Z,53.73
2022-08-26T10:45:33.119Z,54.68
2022-08-26T10:48:05.448Z,55.51
2022-08-26T10:50:43.931Z,56.05
2022-08-26T10:53:42.641Z,55.82
2022-08-26T10:56:47.021Z,55.67
2022-08-26T10:59:55.670Z,55.66
2022-08-26T11:02:47.139Z,55.89
2022-08-26T11:05:23.563Z,56.67
2022-08-26T11:07:56.338Z,55.87
2022-08-26T11:10:24.223Z,55.78
2022-08-26T11:13:07.217Z,52.90
2022-08-26T11:15:40.522Z,50.64
2022-08-26T11:18:12.543Z,51.47
2022-08-26T11:20:47.238Z,53.23
2022-08-26T11:23:23.258Z,52.05
2022-08-26T11:26:35.391Z,45.30
2022-08-26T11:29:04.412Z,42.59
2022-08-26T11:31:39.388Z,40.55
2022-08-26T11:34:13.848Z,37.98
2022-08-26T11:37:00.225Z,37.44
2022-08-26T11:39:57.100Z,36.31
2022-08-26T11:43:40.540Z,35.23
2022-08-26T11:46:13.301Z,35.92
2022-08-26T11:48:43.890Z,36.89
2022-08-26T11:52:26.639Z,39.00
2022-08-26T11:55:14.933Z,41.27
2022-08-26T11:57:53.673Z,41.21
2022-08-26T12:01:36.206Z,39.22
2022-08-26T12:05:19.187Z,40.24
2022-08-26T12:09:02.404Z,41.19
2022-08-26T12:11:37.042Z,42.47
2022-08-26T12:15:21.923Z,42.60
2022-08-26T12:19:04.514Z,43.59
2022-08-26T12:21:34.902Z,45.10
2022-08-26T12:24:04.537Z,44.75
2022-08-26T12:26:39.209Z,44.74
2022-08-26T12:29:26.834Z,45.79
2022-08-26T12:32:17.613Z,46.00
2022-08-26T12:34:48.887Z,44.97
2022-08-26T12:37:18.902Z,46.33
2022-08-26T12:40:29.004Z,46.18
2022-08-26T12:43:00.458Z,45.83
2022-08-26T12:45:43.015Z,45.48
2022-08-26T12:48:29.751Z,45.24
2022-08-26T12:50:58.947Z,43.67
2022-08-26T12:53:42.066Z,43.17
2022-08-26T12:56:40.800Z,40.74
2022-08-26T12:59:25.994Z,41.28
2022-08-26T13:01:54.572Z,41.44
2022-08-26T13:04:40.505Z,41.96
2022-08-26T13:07:21.827Z,42.57
2022-08-26T13:09:56.291Z,41.49
2022-08-26T13:12:37.321Z,39.26
2022-08-26T13:15:07.321Z,39.73
2022-08-26T13:17:35.924Z,41.47
2022-08-26T13:20:04.661Z,41.10
2022-08-26T13:22:32.308Z,41.55
2022-08-26T13:24:59.743Z,41.85
2022-08-26T13:27:27.923Z,40.35
2022-08-26T13:29:57.554Z,39.01
2022-08-26T13:32:27.366Z,38.15
2022-08-26T13:34:57.506Z,37.38
2022-08-26T13:37:35.171Z,38.10
2022-08-26T13:40:07.413Z,38.20
2022-08-26T13:42:35.598Z,38.41
2022-08-26T13:45:03.917Z,38.12
2022-08-26T13:47:33.074Z,37.52
2022-08-26T13:50:00.415Z,36.18
2022-08-26T13:52:30.374Z,34.96
2022-08-26T13:55:00.842Z,34.46
2022-08-26T13:57:30.148Z,34.61
2022-08-26T13:59:59.313Z,33.72
2022-08-26T14:02:27.948Z,33.75
2022-08-26T14:04:55.865Z,33.99
2022-08-26T14:07:23.358Z,34.25
2022-08-26T14:09:50.692Z,34.62
2022-08-26T14:12:18.318Z,34.68
2022-08-26T14:14:45.552Z,35.15
2022-08-26T14:17:22.031Z,34.68
2022-08-26T14:19:51.255Z,34.66
2022-08-26T14:22:22.724Z,34.15
2022-08-26T14:24:50.721Z,33.75
2022-08-26T14:27:22.490Z,34.31
2022-08-26T14:29:49.709Z,34.74
2022-08-26T14:32:27.434Z,34.60
2022-08-26T14:34:56.183Z,34.16
2022-08-26T14:37:23.953Z,34.13
2022-08-26T14:39:52.380Z,34.19
2022-08-26T14:42:31.515Z,33.80
2022-08-26T14:45:04.479Z,33.21
2022-08-26T14:47:32.040Z,33.72
2022-08-26T14:49:59.327Z,34.02
2022-08-26T14:52:27.621Z,33.75
2022-08-26T14:54:55.449Z,33.24
2022-08-26T14:57:22.852Z,33.14
2022-08-26T14:59:50.532Z,33.07
2022-08-26T15:02:32.930Z,33.21
2022-08-26T15:05:02.819Z,32.98
2022-08-26T15:07:30.429Z,32.81
2022-08-26T15:09:58.144Z,32.81
2022-08-26T15:12:25.402Z,32.59
2022-08-26T15:14:52.568Z,32.37
2022-08-26T15:17:19.996Z,32.08
2022-08-26T15:19:47.359Z,32.46
2022-08-26T15:22:14.609Z,32.52
2022-08-26T15:24:41.937Z,32.67
2022-08-26T15:27:09.537Z,33.16
2022-08-26T15:29:37.507Z,32.87
2022-08-26T15:32:05.607Z,32.58
2022-08-26T15:34:32.787Z,32.56
2022-08-26T15:36:59.984Z,32.67
2022-08-26T15:39:27.583Z,32.59
2022-08-26T15:41:56.125Z,32.19
2022-08-26T15:44:26.468Z,32.42
2022-08-26T15:46:58.474Z,31.96
2022-08-26T15:49:27.574Z,32.12
2022-08-26T15:51:55.035Z,32.15
2022-08-26T15:54:23.989Z,32.11
2022-08-26T15:56:52.943Z,32.12
2022-08-26T15:59:22.500Z,32.14
2022-08-26T16:01:49.928Z,32.23
2022-08-26T16:04:18.562Z,32.20
2022-08-26T16:06:50.201Z,32.12
2022-08-26T16:09:20.744Z,32.13
2022-08-26T16:11:47.918Z,32.10
2022-08-26T16:14:15.261Z,31.87
2022-08-26T16:16:42.592Z,31.70
2022-08-26T16:19:11.539Z,31.48
2022-08-26T16:21:41.501Z,31.51
2022-08-26T16:24:09.668Z,31.05
2022-08-26T16:26:40.336Z,30.78
2022-08-26T16:29:13.013Z,30.24
2022-08-26T16:31:41.013Z,29.79
2022-08-26T16:34:09.654Z,29.69
2022-08-26T16:36:40.000Z,29.27
2022-08-26T16:39:09.264Z,29.05
2022-08-26T16:41:37.274Z,28.52
2022-08-26T16:44:06.642Z,28.23
2022-08-26T16:46:35.311Z,28.23
2022-08-26T16:49:05.633Z,27.97
2022-08-26T16:51:37.838Z,27.67
2022-08-26T16:54:08.748Z,27.36
2022-08-26T16:56:38.007Z,26.87
2022-08-26T16:59:11.427Z,26.71
2022-08-26T17:01:38.804Z,26.63
2022-08-26T17:04:06.111Z,26.65
2022-08-26T17:06:33.999Z,26.72
2022-08-26T17:09:01.293Z,26.78
2022-08-26T17:11:28.524Z,26.61
2022-08-26T17:13:55.818Z,26.78
2022-08-26T17:16:26.604Z,26.24
2022-08-26T17:19:00.345Z,25.84
2022-08-26T17:21:29.191Z,25.73
2022-08-26T17:23:56.480Z,25.68
2022-08-26T17:26:23.813Z,25.57
2022-08-26T17:28:51.536Z,25.62
2022-08-26T17:31:20.355Z,25.58
2022-08-26T17:33:53.821Z,25.47
2022-08-26T17:36:28.121Z,25.59
2022-08-26T17:38:58.016Z,25.75
2022-08-26T17:41:26.985Z,25.94
2022-08-26T17:43:54.358Z,25.74
2022-08-26T17:46:22.485Z,25.42
2022-08-26T17:48:49.804Z,25.16
2022-08-26T17:51:19.495Z,23.96
2022-08-26T17:53:48.585Z,23.43
2022-08-26T17:56:23.715Z,23.21
2022-08-26T17:58:57.010Z,23.00
2022-08-26T18:01:27.937Z,22.45
2022-08-26T18:04:00.236Z,22.74
2022-08-26T18:06:30.597Z,22.78
2022-08-26T18:08:59.256Z,22.41
2022-08-26T18:11:28.401Z,22.45
2022-08-26T18:13:55.725Z,22.85
2022-08-26T18:18:54.105Z,22.68
2022-08-26T18:21:26.311Z,22.66
2022-08-26T18:23:54.866Z,22.35
2022-08-26T18:26:27.491Z,22.52
2022-08-26T18:28:55.626Z,22.30
2022-08-26T18:31:23.607Z,22.49
2022-08-26T18:33:51.546Z,22.25
2022-08-26T18:36:26.464Z,21.85
2022-08-26T18:38:55.371Z,21.38
2022-08-26T18:41:27.704Z,21.29
2022-08-26T18:43:56.362Z,21.31
2022-08-26T18:46:27.442Z,21.47
2022-08-26T18:48:57.019Z,21.78
2022-08-26T18:51:32.353Z,21.96
2022-08-26T18:54:05.234Z,22.08
2022-08-26T18:56:36.217Z,21.97
2022-08-26T18:59:06.715Z,22.00
2022-08-26T19:01:36.572Z,22.13
2022-08-26T19:04:07.465Z,22.27
2022-08-26T19:06:36.951Z,22.37
2022-08-26T19:09:09.170Z,22.60
2022-08-26T19:11:42.959Z,22.42
2022-08-26T19:14:16.459Z,22.12
2022-08-26T19:16:48.923Z,21.94
2022-08-26T19:19:16.835Z,22.00
2022-08-26T19:21:44.940Z,22.08
2022-08-26T19:24:17.501Z,22.00
2022-08-26T19:26:57.840Z,22.09
2022-08-26T19:29:31.945Z,22.00
2022-08-26T19:32:00.395Z,21.90
2022-08-26T19:34:27.991Z,21.83
2022-08-26T19:36:56.893Z,22.23
2022-08-26T19:39:26.205Z,22.42
2022-08-26T19:41:54.184Z,22.49
2022-08-26T19:44:42.831Z,22.54
2022-08-26T19:47:12.892Z,22.29
2022-08-26T19:49:40.258Z,22.37
2022-08-26T19:52:07.716Z,22.15
2022-08-26T19:54:36.139Z,22.31
2022-08-26T19:57:04.730Z,22.31
2022-08-26T19:59:33.251Z,22.38
2022-08-26T20:02:01.674Z,22.28
2022-08-26T20:04:31.790Z,21.86
2022-08-26T20:07:01.826Z,22.04
